createdAt,value
2019-04-05T00:00:39.779Z,11.30
2019-04-05T00:03:07.309Z,11.70
2019-04-05T00:05:34.926Z,12.77
2019-04-05T00:08:03.481Z,10.23
2019-04-05T00:10:30.973Z,11.33
2019-04-05T00:12:59.363Z,11.47
2019-04-05T00:15:26.846Z,13.17
2019-04-05T00:17:55.120Z,12.33
2019-04-05T00:20:22.670Z,11.37
2019-04-05T00:22:50.226Z,13.23
2019-04-05T00:25:17.713Z,12.70
2019-04-05T00:27:45.275Z,12.00
2019-04-05T00:30:12.833Z,11.90
2019-04-05T00:32:40.563Z,13.17
2019-04-05T00:35:08.282Z,12.43
2019-04-05T00:37:36.549Z,12.03
2019-04-05T00:40:07.415Z,13.43
2019-04-05T00:42:35.902Z,12.23
2019-04-05T00:45:03.893Z,13.05
2019-04-05T00:47:31.476Z,11.60
2019-04-05T00:49:58.962Z,12.43
2019-04-05T00:52:26.458Z,12.13
2019-04-05T00:54:54.826Z,12.37
2019-04-05T00:57:22.373Z,11.97
2019-04-05T00:59:50.044Z,11.73
2019-04-05T01:02:17.751Z,12.30
2019-04-05T01:04:45.370Z,11.03
2019-04-05T01:07:12.879Z,11.63
2019-04-05T01:09:40.605Z,11.60
2019-04-05T01:12:08.166Z,11.03
2019-04-05T01:14:35.646Z,11.83
2019-04-05T01:17:03.804Z,11.40
2019-04-05T01:19:31.465Z,10.70
2019-04-05T01:21:59.033Z,10.97
2019-04-05T01:24:26.527Z,11.37
2019-04-05T01:26:54.836Z,11.50
2019-04-05T01:29:22.364Z,11.43
2019-04-05T01:31:50.629Z,11.43
2019-04-05T01:34:19.753Z,10.83
2019-04-05T01:36:48.009Z,10.97
2019-04-05T01:39:15.513Z,10.90
2019-04-05T01:41:43.017Z,10.17
2019-04-05T01:44:10.499Z,11.20
2019-04-05T01:46:37.987Z,10.63
2019-04-05T01:49:06.353Z,11.10
2019-04-05T01:51:34.002Z,11.60
2019-04-05T01:54:01.770Z,11.17
2019-04-05T01:56:29.257Z,10.93
2019-04-05T01:58:57.509Z,11.67
2019-04-05T02:01:25.069Z,11.03
2019-04-05T02:03:53.344Z,10.40
2019-04-05T02:06:20.914Z,11.43
2019-04-05T02:08:48.405Z,12.37
2019-04-05T02:11:16.864Z,11.93
2019-04-05T02:13:44.358Z,11.07
2019-04-05T02:16:12.599Z,10.95
2019-04-05T02:18:40.088Z,11.37
2019-04-05T02:21:07.625Z,10.40
2019-04-05T02:23:35.094Z,9.27
2019-04-05T02:26:03.578Z,12.43
2019-04-05T02:28:31.252Z,11.07
2019-04-05T02:30:58.913Z,10.47
2019-04-05T02:33:26.586Z,11.03
2019-04-05T02:35:55.281Z,10.43
2019-04-05T02:38:23.546Z,10.93
2019-04-05T02:40:51.101Z,10.10
2019-04-05T02:43:18.587Z,11.07
2019-04-05T02:45:46.075Z,10.37
2019-04-05T02:48:14.317Z,9.87
2019-04-05T02:50:41.885Z,10.40
2019-04-05T02:53:09.421Z,10.47
2019-04-05T02:55:37.015Z,9.70
2019-04-05T02:58:04.544Z,9.77
2019-04-05T03:00:32.125Z,9.30
2019-04-05T03:02:59.759Z,10.20
2019-04-05T03:05:27.554Z,10.50
2019-04-05T03:07:55.149Z,8.50
2019-04-05T03:10:34.409Z,8.83
2019-04-05T03:13:03.835Z,10.13
2019-04-05T03:15:31.344Z,9.33
2019-04-05T03:17:58.829Z,9.10
2019-04-05T03:20:26.322Z,9.60
2019-04-05T03:22:53.790Z,9.63
2019-04-05T03:25:21.293Z,9.93
2019-04-05T03:27:48.778Z,10.10
2019-04-05T03:30:17.119Z,9.63
2019-04-05T03:32:44.685Z,9.77
2019-04-05T03:35:12.170Z,10.05
2019-04-05T03:37:39.667Z,10.03
2019-04-05T03:40:07.155Z,9.93
2019-04-05T03:42:34.643Z,9.23
2019-04-05T03:45:02.145Z,9.10
2019-04-05T03:47:30.393Z,9.13
2019-04-05T03:49:58.172Z,9.70
2019-04-05T03:52:26.429Z,9.23
2019-04-05T03:54:53.920Z,9.83
2019-04-05T03:57:22.193Z,8.67
2019-04-05T03:59:49.674Z,9.67
2019-04-05T04:02:17.926Z,8.93
2019-04-05T04:04:46.189Z,9.67
2019-04-05T04:07:13.663Z,8.87
2019-04-05T04:09:41.230Z,9.47
2019-04-05T04:12:08.898Z,9.33
2019-04-05T04:14:36.386Z,8.07
2019-04-05T04:17:11.980Z,8.32
2019-04-05T04:19:33.735Z,8.20
2019-04-05T04:22:16.989Z,8.70
2019-04-05T04:24:45.239Z,8.47
2019-04-05T04:27:12.724Z,8.33
2019-04-05T04:29:41.039Z,8.23
2019-04-05T04:32:08.517Z,9.33
2019-04-05T04:34:36.014Z,9.43
2019-04-05T04:37:03.642Z,8.47
2019-04-05T04:39:31.132Z,8.47
2019-04-05T04:41:59.616Z,10.03
2019-04-05T04:44:27.114Z,9.30
2019-04-05T04:46:55.356Z,10.43
2019-04-05T04:49:22.986Z,9.30
2019-04-05T04:51:50.469Z,9.37
2019-04-05T04:54:18.086Z,9.17
2019-04-05T04:56:46.333Z,8.47
2019-04-05T04:59:14.718Z,8.73
2019-04-05T05:01:42.207Z,8.83
2019-04-05T05:04:10.466Z,8.57
2019-04-05T05:06:38.838Z,9.57
2019-04-05T05:09:06.346Z,8.57
2019-04-05T05:11:33.878Z,9.50
2019-04-05T05:14:01.430Z,9.00
2019-04-05T05:16:29.105Z,8.87
2019-04-05T05:18:57.382Z,8.90
2019-04-05T05:21:24.910Z,9.00
2019-04-05T05:23:52.510Z,9.00
2019-04-05T05:26:20.760Z,8.63
2019-04-05T05:28:48.253Z,8.70
2019-04-05T05:31:15.731Z,7.80
2019-04-05T05:33:43.271Z,9.07
2019-04-05T05:36:10.922Z,8.10
2019-04-05T05:38:39.170Z,8.50
2019-04-05T05:41:06.652Z,8.03
2019-04-05T05:43:34.216Z,8.33
2019-04-05T05:46:01.706Z,9.00
2019-04-05T05:48:30.793Z,7.73
2019-04-05T05:50:56.834Z,8.57
2019-04-05T05:53:25.829Z,7.53
2019-04-05T05:55:53.309Z,11.57
2019-04-05T05:58:23.495Z,9.20
2019-04-05T06:00:49.166Z,9.73
2019-04-05T06:03:17.407Z,8.93
2019-04-05T06:05:44.885Z,8.03
2019-04-05T06:08:13.883Z,8.83
2019-04-05T06:10:42.865Z,8.60
2019-04-05T06:13:10.383Z,8.33
2019-04-05T06:15:38.621Z,9.40
2019-04-05T06:18:06.192Z,7.70
2019-04-05T06:20:34.440Z,8.50
2019-04-05T06:23:01.927Z,8.43
2019-04-05T06:25:29.407Z,7.93
2019-04-05T06:27:59.795Z,7.97
2019-04-05T06:30:28.590Z,8.07
2019-04-05T06:32:54.076Z,8.73
2019-04-05T06:35:21.591Z,9.57
2019-04-05T06:37:49.259Z,8.30
2019-04-05T06:40:16.819Z,8.90
2019-04-05T06:42:44.321Z,8.77
2019-04-05T06:45:11.940Z,8.83
2019-04-05T06:47:39.504Z,9.07
2019-04-05T06:50:07.155Z,8.80
2019-04-05T06:52:34.635Z,9.47
2019-04-05T06:55:02.279Z,9.60
2019-04-05T06:57:29.879Z,9.43
2019-04-05T06:59:58.217Z,9.40
2019-04-05T07:02:25.812Z,9.07
2019-04-05T07:04:53.294Z,8.90
2019-04-05T07:07:20.854Z,9.80
2019-04-05T07:09:49.107Z,9.77
2019-04-05T07:12:16.581Z,10.70
2019-04-05T07:14:44.262Z,9.37
2019-04-05T07:17:11.729Z,9.67
2019-04-05T07:19:39.970Z,10.13
2019-04-05T07:22:07.448Z,9.60
2019-04-05T07:24:34.919Z,8.63
2019-04-05T07:27:02.406Z,8.37
2019-04-05T07:29:30.662Z,9.07
2019-04-05T07:31:58.991Z,8.60
2019-04-05T07:34:26.472Z,8.10
2019-04-05T07:36:54.072Z,9.17
2019-04-05T07:39:21.559Z,8.13
2019-04-05T07:41:49.915Z,9.13
2019-04-05T07:44:18.170Z,9.30
2019-04-05T07:46:46.655Z,8.73
2019-04-05T07:49:13.939Z,8.50
2019-04-05T07:51:41.446Z,11.17
2019-04-05T07:54:08.963Z,10.07
2019-04-05T07:56:37.956Z,10.03
2019-04-05T07:59:05.526Z,9.60
2019-04-05T08:01:33.135Z,9.00
2019-04-05T08:04:00.741Z,9.50
2019-04-05T08:06:28.310Z,8.80
2019-04-05T08:08:58.626Z,8.60
2019-04-05T08:11:26.310Z,7.73
2019-04-05T08:13:53.804Z,6.97
2019-04-05T08:16:22.053Z,7.87
2019-04-05T08:18:57.533Z,6.43
2019-04-05T08:21:17.915Z,7.40
2019-04-05T08:23:46.158Z,7.17
2019-04-05T08:26:13.641Z,6.82
2019-04-05T08:28:41.193Z,6.43
2019-04-05T08:31:10.664Z,6.78
2019-04-05T08:33:36.531Z,7.30
2019-04-05T08:36:03.794Z,7.40
2019-04-05T08:38:31.290Z,5.70
2019-04-05T08:40:59.540Z,5.23
2019-04-05T08:43:27.818Z,5.73
2019-04-05T08:45:55.425Z,6.03
2019-04-05T08:48:22.975Z,5.53
2019-04-05T08:50:51.439Z,5.03
2019-04-05T08:53:19.000Z,5.00
2019-04-05T08:55:46.497Z,5.70
2019-04-05T08:58:13.986Z,4.27
2019-04-05T09:00:41.470Z,4.40
2019-04-05T09:03:11.811Z,3.87
2019-04-05T09:05:37.213Z,3.67
2019-04-05T09:08:04.897Z,3.60
2019-04-05T09:10:33.883Z,3.87
2019-04-05T09:13:01.471Z,4.23
2019-04-05T09:15:29.715Z,3.40
2019-04-05T09:17:57.298Z,3.70
2019-04-05T09:20:24.873Z,3.90
2019-04-05T09:22:53.151Z,3.63
2019-04-05T09:25:20.703Z,3.43
2019-04-05T09:27:48.200Z,4.27
2019-04-05T09:30:16.546Z,3.90
2019-04-05T09:32:44.022Z,4.03
2019-04-05T09:35:11.607Z,3.73
2019-04-05T09:37:39.848Z,4.40
2019-04-05T09:40:07.339Z,4.50
2019-04-05T09:42:35.577Z,4.23
2019-04-05T09:45:04.930Z,4.43
2019-04-05T09:47:33.178Z,4.60
2019-04-05T09:50:00.692Z,4.47
2019-04-05T09:52:28.476Z,4.07
2019-04-05T09:54:56.142Z,4.30
2019-04-05T09:57:25.134Z,4.37
2019-04-05T09:59:53.371Z,4.50
2019-04-05T10:02:20.857Z,4.60
2019-04-05T10:04:49.223Z,4.93
2019-04-05T10:07:17.487Z,4.97
2019-04-05T10:09:44.977Z,5.20
2019-04-05T10:12:13.217Z,5.40
2019-04-05T10:14:40.702Z,4.73
2019-04-05T10:17:08.177Z,5.18
2019-04-05T10:19:48.909Z,5.47
2019-04-05T10:22:03.928Z,5.40
2019-04-05T10:24:33.083Z,5.50
2019-04-05T10:26:58.989Z,5.40
2019-04-05T10:29:26.483Z,6.20
2019-04-05T10:31:53.960Z,6.10
2019-04-05T10:34:21.517Z,6.30
2019-04-05T10:36:49.007Z,6.50
2019-04-05T10:39:17.361Z,5.83
2019-04-05T10:41:46.351Z,6.30
2019-04-05T10:44:14.626Z,5.67
2019-04-05T10:46:42.110Z,5.70
2019-04-05T10:49:10.368Z,5.80
2019-04-05T10:51:38.119Z,5.90
2019-04-05T10:54:05.637Z,5.53
2019-04-05T10:56:33.931Z,6.27
2019-04-05T10:59:03.686Z,5.57
2019-04-05T11:01:31.174Z,6.00
2019-04-05T11:03:58.653Z,5.83
2019-04-05T11:06:26.993Z,6.27
2019-04-05T11:08:54.485Z,5.97
2019-04-05T11:11:23.594Z,6.57
2019-04-05T11:13:51.128Z,6.00
2019-04-05T11:16:18.627Z,5.73
2019-04-05T11:18:46.885Z,6.67
2019-04-05T11:21:16.271Z,5.57
2019-04-05T11:23:43.444Z,6.67
2019-04-05T11:26:10.942Z,6.37
2019-04-05T11:28:38.435Z,6.53
2019-04-05T11:31:05.971Z,6.50
2019-04-05T11:33:33.424Z,5.93
2019-04-05T11:36:00.966Z,6.60
2019-04-05T11:38:29.227Z,5.97
2019-04-05T11:40:56.825Z,5.73
2019-04-05T11:43:26.876Z,5.37
2019-04-05T11:45:53.466Z,5.80
2019-04-05T11:48:21.943Z,6.53
2019-04-05T11:50:49.451Z,6.60
2019-04-05T11:53:16.946Z,6.40
2019-04-05T11:55:46.525Z,5.95
2019-04-05T11:58:12.798Z,6.23
2019-04-05T12:00:43.229Z,6.72
2019-04-05T12:03:11.673Z,6.03
2019-04-05T12:05:39.156Z,6.70
2019-04-05T12:08:06.648Z,6.13
2019-04-05T12:10:34.138Z,5.90
2019-04-05T12:13:02.417Z,5.47
2019-04-05T12:15:30.666Z,6.00
2019-04-05T12:17:58.346Z,6.43
2019-04-05T12:20:25.824Z,6.27
2019-04-05T12:22:54.078Z,5.87
2019-04-05T12:25:21.567Z,6.57
2019-04-05T12:27:49.109Z,7.27
2019-04-05T12:30:17.387Z,6.77
2019-04-05T12:32:46.569Z,6.47
2019-04-05T12:35:12.608Z,6.30
2019-04-05T12:37:50.297Z,7.20
2019-04-05T12:40:10.135Z,6.90
2019-04-05T12:42:36.957Z,6.83
2019-04-05T12:45:06.115Z,6.30
2019-04-05T12:47:34.104Z,6.07
2019-04-05T12:50:01.115Z,6.17
2019-04-05T12:52:29.355Z,5.70
2019-04-05T12:54:56.922Z,6.03
2019-04-05T12:57:25.707Z,4.90
2019-04-05T12:59:55.733Z,5.33
2019-04-05T13:02:32.946Z,4.67
2019-04-05T13:04:50.129Z,4.80
2019-04-05T13:07:17.134Z,5.00
2019-04-05T13:09:45.757Z,4.63
2019-04-05T13:12:12.117Z,4.30
2019-04-05T13:14:39.752Z,4.60
2019-04-05T13:17:07.247Z,4.30
2019-04-05T13:19:34.733Z,4.60
2019-04-05T13:22:03.907Z,4.60
2019-04-05T13:24:31.376Z,4.37
2019-04-05T13:27:01.943Z,3.73
2019-04-05T13:29:27.454Z,4.03
2019-04-05T13:31:55.798Z,4.47
2019-04-05T13:34:25.479Z,4.50
2019-04-05T13:36:50.841Z,3.70
2019-04-05T13:39:19.219Z,3.90
2019-04-05T13:41:46.759Z,3.90
2019-04-05T13:44:14.247Z,3.60
2019-04-05T13:46:42.882Z,3.67
2019-04-05T13:49:10.939Z,3.90
2019-04-05T13:51:41.572Z,3.13
2019-04-05T13:54:08.561Z,3.90
2019-04-05T13:56:34.395Z,3.17
2019-04-05T13:59:02.074Z,3.80
2019-04-05T14:01:29.553Z,3.53
2019-04-05T14:03:57.109Z,3.60
2019-04-05T14:06:24.635Z,4.13
2019-04-05T14:08:52.136Z,3.60
2019-04-05T14:11:19.603Z,3.50
2019-04-05T14:13:47.152Z,4.30
2019-04-05T14:16:14.634Z,4.30
2019-04-05T14:18:47.983Z,4.00
2019-04-05T14:21:10.226Z,4.97
2019-04-05T14:23:37.753Z,3.80
2019-04-05T14:26:06.748Z,4.47
2019-04-05T14:28:34.998Z,4.07
2019-04-05T14:31:02.882Z,4.00
2019-04-05T14:33:30.845Z,4.00
2019-04-05T14:35:58.323Z,4.60
2019-04-05T14:38:25.802Z,4.43
2019-04-05T14:40:54.113Z,3.93
2019-04-05T14:43:21.716Z,4.73
2019-04-05T14:45:49.604Z,4.03
2019-04-05T14:48:18.719Z,4.40
2019-04-05T14:50:46.965Z,4.70
2019-04-05T14:53:14.517Z,5.00
2019-04-05T14:55:42.261Z,5.17
2019-04-05T14:58:10.655Z,4.60
2019-04-05T15:00:38.039Z,4.40
2019-04-05T15:03:05.722Z,4.80
2019-04-05T15:05:33.226Z,4.70
2019-04-05T15:08:00.733Z,4.83
2019-04-05T15:10:28.207Z,4.47
2019-04-05T15:12:56.626Z,4.50
2019-04-05T15:15:24.146Z,4.90
2019-04-05T15:17:51.626Z,4.70
2019-04-05T15:20:20.194Z,4.30
2019-04-05T15:22:47.686Z,4.40
2019-04-05T15:25:17.837Z,4.63
2019-04-05T15:27:44.219Z,3.97
2019-04-05T15:30:11.700Z,3.87
2019-04-05T15:32:39.947Z,4.47
2019-04-05T15:35:07.522Z,4.43
2019-04-05T15:37:37.443Z,4.00
2019-04-05T15:40:03.611Z,4.37
2019-04-05T15:42:31.173Z,3.97
2019-04-05T15:44:59.520Z,4.07
2019-04-05T15:47:27.085Z,4.30
2019-04-05T15:49:54.646Z,3.90
2019-04-05T15:52:22.407Z,3.80
2019-04-05T15:54:49.957Z,3.90
2019-04-05T15:57:17.543Z,4.23
2019-04-05T15:59:45.374Z,4.37
2019-04-05T16:02:13.600Z,3.50
2019-04-05T16:04:41.868Z,3.83
2019-04-05T16:07:09.432Z,3.80
2019-04-05T16:09:38.483Z,3.30
2019-04-05T16:12:05.920Z,3.87
2019-04-05T16:14:34.347Z,4.00
2019-04-05T16:17:01.846Z,3.50
2019-04-05T16:19:29.406Z,4.30
2019-04-05T16:21:56.890Z,4.10
2019-04-05T16:24:25.163Z,3.67
2019-04-05T16:26:52.750Z,3.23
2019-04-05T16:29:21.001Z,3.37
2019-04-05T16:31:48.562Z,3.40
2019-04-05T16:34:16.274Z,3.40
2019-04-05T16:36:44.940Z,3.77
2019-04-05T16:39:13.190Z,3.27
2019-04-05T16:41:40.696Z,3.50
2019-04-05T16:44:09.045Z,3.23
2019-04-05T16:46:36.603Z,3.30
2019-04-05T16:49:05.810Z,3.60
2019-04-05T16:51:33.285Z,3.77
2019-04-05T16:54:01.549Z,3.07
2019-04-05T16:56:29.604Z,3.07
2019-04-05T16:58:57.188Z,3.27
2019-04-05T17:01:27.404Z,3.20
2019-04-05T17:03:53.025Z,3.33
2019-04-05T17:06:20.586Z,2.93
2019-04-05T17:08:48.059Z,2.90
2019-04-05T17:11:15.557Z,2.93
2019-04-05T17:13:43.917Z,2.57
2019-04-05T17:16:12.177Z,3.10
2019-04-05T17:18:39.956Z,3.30
2019-04-05T17:21:09.045Z,2.87
2019-04-05T17:23:36.624Z,2.40
2019-04-05T17:26:04.112Z,2.83
2019-04-05T17:28:32.456Z,3.07
2019-04-05T17:31:00.021Z,2.67
2019-04-05T17:33:27.619Z,2.70
2019-04-05T17:35:55.952Z,2.70
2019-04-05T17:38:23.538Z,2.87
2019-04-05T17:40:51.023Z,2.57
2019-04-05T17:43:19.360Z,2.80
2019-04-05T17:45:46.854Z,3.23
2019-04-05T17:48:14.936Z,2.40
2019-04-05T17:50:41.908Z,2.43
2019-04-05T17:53:13.404Z,2.80
2019-04-05T17:55:37.219Z,3.03
2019-04-05T17:58:04.720Z,3.10
2019-04-05T18:00:33.034Z,2.50
2019-04-05T18:03:00.556Z,2.70
2019-04-05T18:05:28.079Z,2.60
2019-04-05T18:07:56.335Z,2.40
2019-04-05T18:10:24.009Z,2.80
2019-04-05T18:12:51.683Z,2.50
2019-04-05T18:15:19.244Z,2.40
2019-04-05T18:17:46.708Z,2.67
2019-04-05T18:20:14.271Z,2.20
2019-04-05T18:22:41.836Z,2.77
2019-04-05T18:25:09.318Z,2.37
2019-04-05T18:27:37.568Z,2.20
2019-04-05T18:30:05.055Z,2.00
2019-04-05T18:32:32.566Z,2.10
2019-04-05T18:35:00.162Z,2.23
2019-04-05T18:37:27.675Z,2.03
2019-04-05T18:39:55.156Z,2.10
2019-04-05T18:42:22.767Z,2.30
2019-04-05T18:44:50.264Z,2.00
2019-04-05T18:47:17.748Z,1.60
2019-04-05T18:49:45.240Z,2.07
2019-04-05T18:52:12.721Z,1.97
2019-04-05T18:54:40.259Z,2.03
2019-04-05T18:57:07.880Z,1.97
2019-04-05T18:59:35.353Z,2.13
2019-04-05T19:02:03.678Z,2.17
2019-04-05T19:04:31.157Z,2.30
2019-04-05T19:06:58.653Z,1.83
2019-04-05T19:09:26.176Z,2.27
2019-04-05T19:11:53.660Z,2.20
2019-04-05T19:14:22.015Z,2.17
2019-04-05T19:16:49.676Z,1.97
2019-04-05T19:19:17.947Z,2.10
2019-04-05T19:21:45.524Z,2.63
2019-04-05T19:24:13.156Z,1.83
2019-04-05T19:26:40.659Z,2.13
2019-04-05T19:29:08.274Z,1.80
2019-04-05T19:48:51.791Z,1.93
2019-04-05T19:51:19.433Z,2.03
2019-04-05T19:53:46.931Z,2.00
2019-04-05T19:56:14.596Z,2.10
2019-04-05T19:58:42.083Z,2.00
2019-04-05T20:01:10.327Z,1.73
2019-04-05T20:03:37.837Z,2.00
2019-04-05T20:06:05.330Z,1.97
2019-04-05T20:08:32.925Z,2.03
2019-04-05T20:11:00.493Z,1.83
2019-04-05T20:13:28.264Z,2.40
2019-04-05T20:15:55.774Z,2.00
2019-04-05T20:18:23.470Z,2.20
2019-04-05T20:20:50.945Z,1.80
2019-04-05T20:23:18.521Z,2.00
2019-04-05T20:25:46.091Z,2.30
2019-04-05T20:28:13.584Z,2.27
2019-04-05T20:30:41.070Z,2.30
2019-04-05T20:33:08.553Z,2.33
2019-04-05T20:35:36.121Z,2.80
2019-04-05T20:38:04.485Z,2.73
2019-04-05T20:40:32.028Z,2.73
2019-04-05T20:42:59.955Z,2.70
2019-04-05T20:45:27.009Z,3.10
2019-04-05T20:47:54.507Z,3.63
2019-04-05T20:50:21.973Z,3.67
2019-04-05T20:52:49.542Z,3.20
2019-04-05T20:55:17.103Z,3.60
2019-04-05T20:57:44.608Z,4.17
2019-04-05T21:00:12.138Z,4.37
2019-04-05T21:02:39.625Z,2.70
2019-04-05T21:05:07.354Z,3.57
2019-04-05T21:07:34.903Z,4.50
2019-04-05T21:10:05.346Z,4.27
2019-04-05T21:12:32.825Z,3.73
2019-04-05T21:15:00.444Z,4.50
2019-04-05T21:17:28.499Z,3.70
2019-04-05T21:19:56.008Z,4.03
2019-04-05T21:22:23.578Z,4.27
2019-04-05T21:24:51.047Z,4.13
2019-04-05T21:27:18.605Z,3.90
2019-04-05T21:29:46.384Z,4.30
2019-04-05T21:32:14.022Z,3.17
2019-04-05T21:34:43.451Z,4.03
2019-04-05T21:37:11.527Z,4.17
2019-04-05T21:39:39.429Z,4.33
2019-04-05T21:42:08.512Z,3.87
2019-04-05T21:44:36.091Z,4.03
2019-04-05T21:47:04.457Z,4.20
2019-04-05T21:49:32.146Z,4.07
2019-04-05T21:51:59.768Z,4.13
2019-04-05T21:54:28.132Z,4.10
2019-04-05T21:56:56.488Z,4.50
2019-04-05T21:59:24.107Z,4.80
2019-04-05T22:01:51.876Z,4.20
2019-04-05T22:04:19.446Z,4.50
2019-04-05T22:06:47.634Z,4.50
2019-04-05T22:09:15.170Z,4.20
2019-04-05T22:11:43.508Z,4.27
2019-04-05T22:14:11.286Z,3.63
2019-04-05T22:16:40.384Z,4.70
2019-04-05T22:19:08.208Z,4.37
2019-04-05T22:21:36.023Z,4.90
2019-04-05T22:24:04.462Z,4.63
2019-04-05T22:26:32.035Z,4.63
2019-04-05T22:28:59.615Z,4.53
2019-04-05T22:31:27.206Z,5.30
2019-04-05T22:33:54.921Z,4.53
2019-04-05T22:36:22.529Z,4.50
2019-04-05T22:38:51.620Z,4.63
2019-04-05T22:41:19.296Z,4.23
2019-04-05T22:43:47.028Z,5.00
2019-04-05T22:46:14.698Z,4.37
2019-04-05T22:48:42.389Z,4.23
2019-04-05T22:51:10.122Z,4.73
2019-04-05T22:53:37.708Z,5.20
2019-04-05T22:56:05.300Z,5.73
2019-04-05T22:58:34.913Z,4.47
2019-04-05T23:01:04.308Z,5.20
2019-04-05T23:03:31.888Z,5.47
2019-04-05T23:05:59.474Z,5.00
2019-04-05T23:08:28.233Z,5.10
2019-04-05T23:10:55.899Z,5.07
2019-04-05T23:13:24.339Z,5.27
2019-04-05T23:15:52.873Z,5.20
2019-04-05T23:18:20.532Z,4.67
2019-04-05T23:20:48.304Z,5.97
2019-04-05T23:23:16.103Z,5.20
2019-04-05T23:25:44.472Z,5.33
2019-04-05T23:28:12.129Z,5.70
2019-04-05T23:30:41.236Z,4.80
2019-04-05T23:33:08.829Z,6.50
2019-04-05T23:35:36.688Z,6.13
2019-04-05T23:38:05.050Z,5.60
2019-04-05T23:40:33.394Z,5.73
2019-04-05T23:43:00.990Z,5.53
2019-04-05T23:45:28.572Z,4.87
2019-04-05T23:47:56.909Z,6.60
2019-04-05T23:50:24.610Z,6.07
2019-04-05T23:52:52.310Z,6.47
2019-04-05T23:55:19.878Z,5.73
2019-04-05T23:57:47.508Z,5.10
